Time;durP1;ratioP1;P1;durP2;ratioP2;P2;SDS_P1;SDS_P2;PMS_P1;PMS_P2;Temp;Humidity;BMP_temperature;BMP_pressure;BME280_temperature;BME280_humidity;BME280_pressure;Samples;Min_cycle;Max_cycle;Signal;HPM_P1;HPM_P2
2023/05/09 00:00:19;;;;;;;;;;;16.30;66.90;;;12.08;100.00;95803.56;5049943;28;20014;-48
2023/05/09 00:02:45;;;;;;;;;;;16.20;66.90;;;12.02;100.00;95802.75;5048716;28;20315;-47
2023/05/09 00:05:11;;;;;;;;;;;16.20;67.00;;;11.99;100.00;95816.63;5051898;28;20372;-48
2023/05/09 00:07:37;;;;;;;;;;;16.20;67.00;;;11.97;100.00;95810.78;5043151;28;19916;-47
2023/05/09 00:10:04;;;;;;;;;;;16.10;67.80;;;11.95;100.00;95812.13;5051806;28;19958;-50
2023/05/09 00:12:30;;;;;;;;;;;16.10;67.00;;;11.93;100.00;95814.25;5048121;28;20011;-48
2023/05/09 00:14:56;;;;;;;;;;;16.10;67.10;;;11.90;100.00;95806.75;5042588;28;19919;-47
2023/05/09 00:17:23;;;;;;;;;;;16.10;67.10;;;11.90;100.00;95802.22;5051643;28;20389;-47
2023/05/09 00:19:51;;;;;;;;;;;16.10;67.10;;;11.90;100.00;95804.91;5047965;28;20264;-47
2023/05/09 00:22:20;;;;;;;;;;;16.10;67.20;;;11.92;100.00;95809.97;5051613;28;20283;-46
2023/05/09 00:24:47;;;;;;;;;;;16.10;67.20;;;11.89;100.00;95810.50;5045184;28;19909;-47
2023/05/09 00:27:15;;;;;;;;;;;16.10;67.30;;;11.90;100.00;95806.75;5032045;28;19912;-47
2023/05/09 00:29:41;;;;;;;;;;;16.10;67.30;;;11.91;100.00;95808.34;5051723;28;20379;-47
2023/05/09 00:32:07;;;;;;;;;;;16.10;67.30;;;11.90;100.00;95809.44;5039246;28;19953;-47
2023/05/09 00:34:33;;;;;;;;;;;16.10;68.20;;;11.90;100.00;95806.75;5051547;28;19916;-47
2023/05/09 00:36:58;;;;;;;;;;;16.10;67.40;;;11.94;100.00;95808.66;5048028;28;19916;-48
2023/05/09 00:39:24;;;;;;;;;;;16.10;67.40;;;11.96;100.00;95803.81;5051361;28;19999;-48
2023/05/09 00:41:51;;;;;;;;;;;16.20;67.40;;;11.95;100.00;95791.56;5053848;28;19914;-47
2023/05/09 00:44:17;;;;;;;;;;;16.20;67.40;;;11.96;100.00;95793.16;5048607;28;20050;-49
2023/05/09 00:46:43;;;;;;;;;;;16.20;66.90;;;11.95;100.00;95788.09;5049711;28;19913;-47
2023/05/09 00:49:09;;;;;;;;;;;16.20;67.50;;;11.93;100.00;95780.34;5039122;28;19909;-47
2023/05/09 00:51:36;;;;;;;;;;;16.20;67.50;;;11.94;100.00;95775.78;5036485;28;19989;-47
2023/05/09 00:54:02;;;;;;;;;;;16.20;67.50;;;11.92;100.00;95773.41;5048151;28;20362;-47
2023/05/09 00:56:28;;;;;;;;;;;16.20;67.50;;;11.89;100.00;95773.16;5038528;28;20061;-48
2023/05/09 00:58:54;;;;;;;;;;;16.10;67.40;;;11.89;100.00;95770.47;5037616;28;19995;-48
2023/05/09 01:01:20;;;;;;;;;;;16.10;67.40;;;11.87;100.00;95765.38;5050291;28;19970;-47
2023/05/09 01:03:46;;;;;;;;;;;16.10;67.50;;;11.83;100.00;95764.31;5055120;28;19978;-47
2023/05/09 01:06:49;;;;;;;;;;;16.10;67.50;;;11.78;100.00;95764.28;5053466;28;20003;-48
2023/05/09 01:09:42;;;;;;;;;;;16.00;68.20;;;11.78;100.00;95761.63;5047849;28;19941;-47
2023/05/09 01:12:44;;;;;;;;;;;16.00;67.50;;;11.77;100.00;95757.38;5054799;28;19977;-49
2023/05/09 01:15:28;;;;;;;;;;;15.90;67.60;;;11.74;100.00;95752.56;5047031;28;19952;-47
2023/05/09 01:18:20;;;;;;;;;;;15.90;67.60;;;11.71;100.00;95753.88;5054595;28;19915;-47
2023/05/09 01:21:07;;;;;;;;;;;15.90;67.70;;;11.66;100.00;95751.25;5051142;28;20003;-47
2023/05/09 01:24:13;;;;;;;;;;;15.90;67.70;;;11.63;100.00;95754.44;5037742;28;19966;-47
2023/05/09 01:27:05;;;;;;;;;;;15.80;67.70;;;11.62;100.00;95744.03;5040701;28;20325;-47
2023/05/09 01:29:41;;;;;;;;;;;15.80;67.70;;;11.60;100.00;95744.31;5036546;28;19912;-47
2023/05/09 01:32:18;;;;;;;;;;;15.80;67.70;;;11.55;100.00;95746.94;5014371;28;20003;-46
2023/05/09 01:34:46;;;;;;;;;;;15.80;67.70;;;11.50;100.00;95739.75;5054110;28;19919;-48
2023/05/09 01:37:23;;;;;;;;;;;15.70;67.70;;;11.47;100.00;95740.28;5033423;28;19915;-47
2023/05/09 01:39:54;;;;;;;;;;;15.70;67.70;;;11.47;100.00;95736.81;5054093;28;19931;-47
2023/05/09 01:42:24;;;;;;;;;;;15.70;67.70;;;11.43;100.00;95723.19;5050734;28;20286;-47
2023/05/09 01:44:53;;;;;;;;;;;15.60;67.80;;;11.41;100.00;95720.03;5044680;28;19908;-47
2023/05/09 01:47:19;;;;;;;;;;;15.60;67.80;;;11.39;100.00;95727.47;5043400;28;19915;-49
2023/05/09 01:49:47;;;;;;;;;;;15.60;67.90;;;11.38;100.00;95727.75;5023121;28;19908;-47
2023/05/09 01:52:18;;;;;;;;;;;15.50;67.80;;;11.33;100.00;95724.00;5035833;28;19912;-47
2023/05/09 01:54:46;;;;;;;;;;;15.50;67.90;;;11.29;100.00;95730.94;5019700;28;19924;-48
2023/05/09 01:57:13;;;;;;;;;;;15.50;67.90;;;11.25;100.00;95732.53;5036517;28;19908;-47
2023/05/09 01:59:47;;;;;;;;;;;15.50;68.00;;;11.19;100.00;95724.78;5053984;28;19916;-46
2023/05/09 02:02:14;;;;;;;;;;;15.40;67.90;;;11.14;100.00;95724.78;5049992;28;20294;-47
2023/05/09 02:04:43;;;;;;;;;;;15.40;67.90;;;11.09;100.00;95726.38;5036177;28;19915;-47
2023/05/09 02:07:11;;;;;;;;;;;15.40;68.00;;;11.06;100.00;95726.09;5027132;28;20390;-47
2023/05/09 02:09:37;;;;;;;;;;;15.30;67.90;;;11.04;100.00;95726.34;5035704;28;19924;-47
2023/05/09 02:12:06;;;;;;;;;;;15.30;68.80;;;11.03;100.00;95729.28;5053539;28;19916;-47
2023/05/09 02:14:32;;;;;;;;;;;15.30;68.00;;;10.99;100.00;95728.22;5040510;28;20394;-47
2023/05/09 02:17:05;;;;;;;;;;;15.20;68.00;;;10.97;100.00;95733.00;5053396;28;19908;-48
2023/05/09 02:19:34;;;;;;;;;;;15.20;68.10;;;10.95;100.00;95732.47;5050369;28;20271;-47
2023/05/09 02:22:03;;;;;;;;;;;15.20;68.10;;;10.95;100.00;95722.59;5053342;28;19912;-47
2023/05/09 02:24:33;;;;;;;;;;;15.20;68.10;;;10.92;100.00;95720.47;5043159;28;19959;-47
2023/05/09 02:27:01;;;;;;;;;;;15.10;68.10;;;10.90;100.00;95727.91;5049988;28;20450;-49
2023/05/09 02:29:41;;;;;;;;;;;15.10;68.90;;;10.89;100.00;95729.00;5035660;28;19915;-47
2023/05/09 02:32:15;;;;;;;;;;;15.10;68.20;;;10.86;100.00;95724.19;5025280;28;20412;-48
2023/05/09 02:34:42;;;;;;;;;;;15.10;68.30;;;10.87;100.00;95717.78;5035853;28;19919;-49
2023/05/09 02:37:10;;;;;;;;;;;15.10;68.30;;;10.84;100.00;95721.78;5027614;28;19909;-47
2023/05/09 02:39:36;;;;;;;;;;;15.00;68.30;;;10.84;100.00;95713.78;5029240;28;19916;-47
2023/05/09 02:42:19;;;;;;;;;;;15.10;68.40;;;10.82;100.00;95713.25;5053020;28;19915;-47
2023/05/09 02:44:45;;;;;;;;;;;15.00;68.40;;;10.81;100.00;95708.16;5049046;28;19952;-48
2023/05/09 02:47:11;;;;;;;;;;;15.00;68.40;;;10.79;100.00;95710.31;5038697;28;20003;-49
2023/05/09 02:49:37;;;;;;;;;;;15.00;68.40;;;10.78;100.00;95708.69;5036997;28;20015;-47
2023/05/09 02:52:02;;;;;;;;;;;15.00;68.50;;;10.75;100.00;95712.69;5021714;28;19967;-47
2023/05/09 02:54:29;;;;;;;;;;;15.00;68.60;;;10.73;100.00;95716.69;5039985;28;19916;-48
2023/05/09 02:56:54;;;;;;;;;;;15.00;68.60;;;10.70;100.00;95704.69;5031305;28;19999;-48
2023/05/09 02:59:20;;;;;;;;;;;15.00;68.60;;;10.67;100.00;95707.88;5031909;28;20018;-47
2023/05/09 03:01:46;;;;;;;;;;;15.00;68.60;;;10.68;100.00;95706.81;5031245;28;19908;-50
2023/05/09 03:04:12;;;;;;;;;;;15.00;68.60;;;10.70;100.00;95701.22;5030874;28;19971;-47
2023/05/09 03:06:38;;;;;;;;;;;15.00;68.70;;;10.71;100.00;95700.94;5030705;28;20335;-48
2023/05/09 03:09:04;;;;;;;;;;;15.00;68.70;;;10.73;100.00;95698.03;5029101;28;19942;-48
2023/05/09 03:11:29;;;;;;;;;;;15.00;68.70;;;10.74;100.00;95699.63;5030201;28;19912;-49
2023/05/09 03:13:56;;;;;;;;;;;15.10;68.70;;;10.76;100.00;95702.84;5030633;28;19913;-48
2023/05/09 03:16:22;;;;;;;;;;;15.10;68.70;;;10.77;100.00;95701.78;5031809;28;19936;-48
2023/05/09 03:18:47;;;;;;;;;;;15.10;68.70;;;10.79;100.00;95697.78;5029789;28;20367;-47
2023/05/09 03:21:13;;;;;;;;;;;15.10;68.70;;;10.82;100.00;95702.59;5031683;28;19909;-49
2023/05/09 03:23:39;;;;;;;;;;;15.20;68.80;;;10.86;100.00;95692.19;5031559;28;20416;-49
2023/05/09 03:26:04;;;;;;;;;;;15.20;68.80;;;10.89;100.00;95697.81;5027369;28;20462;-47
2023/05/09 03:28:30;;;;;;;;;;;15.20;68.80;;;10.96;100.00;95697.53;5036813;28;19909;-51
2023/05/09 03:30:56;;;;;;;;;;;15.30;68.90;;;10.99;100.00;95704.22;5037585;28;19909;-49
2023/05/09 03:33:22;;;;;;;;;;;15.30;68.90;;;11.01;100.00;95702.91;5044766;28;19909;-47
2023/05/09 03:35:47;;;;;;;;;;;15.30;68.80;;;11.06;100.00;95702.09;5030692;28;20380;-48
2023/05/09 03:38:13;;;;;;;;;;;15.40;68.90;;;11.11;100.00;95694.13;5030296;28;19920;-47
2023/05/09 03:40:39;;;;;;;;;;;15.40;68.80;;;11.16;100.00;95688.81;5031309;28;19992;-48
2023/05/09 03:43:04;;;;;;;;;;;15.50;68.90;;;11.21;100.00;95691.44;5030094;28;20356;-48
2023/05/09 03:45:30;;;;;;;;;;;15.50;69.60;;;11.24;100.00;95690.91;5042869;28;20367;-48
2023/05/09 03:47:56;;;;;;;;;;;15.60;68.80;;;11.31;100.00;95690.66;5032257;28;19908;-48
2023/05/09 03:50:22;;;;;;;;;;;15.60;68.70;;;11.33;100.00;95686.66;5030225;28;19909;-47
2023/05/09 03:52:49;;;;;;;;;;;15.70;68.70;;;11.39;100.00;95689.34;5030912;28;19912;-48
2023/05/09 03:55:15;;;;;;;;;;;15.70;68.70;;;11.42;100.00;95688.81;5029873;28;19942;-47
2023/05/09 03:57:41;;;;;;;;;;;15.80;68.80;;;11.45;100.00;95678.41;5030168;28;19909;-48
2023/05/09 04:00:09;;;;;;;;;;;15.80;68.70;;;11.51;100.00;95681.88;5030859;28;19923;-48
2023/05/09 04:02:34;;;;;;;;;;;15.90;68.70;;;11.55;100.00;95689.06;5024824;28;19909;-48
2023/05/09 04:05:01;;;;;;;;;;;15.90;68.70;;;11.61;100.00;95689.06;5031018;28;20378;-48
2023/05/09 04:07:27;;;;;;;;;;;16.00;68.70;;;11.65;100.00;95687.44;5029133;28;20271;-48
2023/05/09 04:09:54;;;;;;;;;;;16.00;68.60;;;11.69;100.00;95689.34;5030901;28;19912;-48
2023/05/09 04:12:21;;;;;;;;;;;16.10;68.70;;;11.71;100.00;95697.84;5029953;28;19977;-48
2023/05/09 04:14:46;;;;;;;;;;;16.10;68.60;;;11.76;100.00;95691.72;5031504;28;19912;-48
2023/05/09 04:17:12;;;;;;;;;;;16.20;68.60;;;11.79;100.00;95693.84;5034402;28;19917;-49
2023/05/09 04:19:38;;;;;;;;;;;16.20;68.50;;;11.83;100.00;95694.91;5033184;28;20264;-48
2023/05/09 04:22:04;;;;;;;;;;;16.30;68.60;;;11.89;100.00;95704.53;5034838;28;19916;-47
2023/05/09 04:24:29;;;;;;;;;;;16.30;68.50;;;11.88;100.00;95697.59;5033553;28;20372;-48
2023/05/09 04:26:56;;;;;;;;;;;16.30;68.40;;;11.92;100.00;95696.00;5037145;28;19908;-48
2023/05/09 04:29:22;;;;;;;;;;;16.40;68.50;;;11.99;100.00;95701.06;5045240;28;19909;-48
2023/05/09 04:31:48;;;;;;;;;;;16.40;68.50;;;12.02;100.00;95700.50;5033335;28;19924;-48
2023/05/09 04:34:13;;;;;;;;;;;16.50;68.50;;;12.05;100.00;95691.97;5034831;28;19909;-48
2023/05/09 04:36:39;;;;;;;;;;;16.50;68.50;;;12.08;100.00;95694.09;5033369;28;19920;-47
2023/05/09 04:39:07;;;;;;;;;;;16.50;68.40;;;12.12;100.00;95689.78;5033634;28;26969;-48
2023/05/09 04:41:33;;;;;;;;;;;16.60;68.40;;;12.18;100.00;95687.91;5033320;28;19912;-50
2023/05/09 04:43:58;;;;;;;;;;;16.60;68.40;;;12.21;100.00;95696.19;5032079;28;19915;-51
2023/05/09 04:46:24;;;;;;;;;;;16.70;68.40;;;12.28;100.00;95701.22;5032552;28;20008;-49
2023/05/09 04:48:50;;;;;;;;;;;16.80;68.40;;;12.32;100.00;95698.84;5012931;28;19915;-52
2023/05/09 04:51:16;;;;;;;;;;;16.90;68.40;;;12.36;100.00;95686.53;5031667;28;19926;-48
2023/05/09 04:53:41;;;;;;;;;;;17.00;68.30;;;12.42;100.00;95680.91;5051738;28;19958;-51
2023/05/09 04:56:07;;;;;;;;;;;17.00;68.20;;;12.47;100.00;95674.72;5037872;28;19939;-49
2023/05/09 04:58:37;;;;;;;;;;;17.00;68.10;;;12.52;100.00;95669.38;5005338;28;19909;-48
2023/05/09 05:01:04;;;;;;;;;;;17.10;68.10;;;12.57;100.00;95676.56;5021288;28;20335;-47
2023/05/09 05:03:30;;;;;;;;;;;17.20;68.10;;;12.64;100.00;95680.53;5047509;28;20275;-49
2023/05/09 05:05:56;;;;;;;;;;;17.30;68.10;;;12.73;100.00;95676.22;5026440;28;20004;-48
2023/05/09 05:08:22;;;;;;;;;;;17.30;68.00;;;12.81;100.00;95677.50;5028979;28;20446;-47
2023/05/09 05:10:48;;;;;;;;;;;17.40;68.00;;;12.87;100.00;95686.28;5034028;28;19934;-47
2023/05/09 05:13:14;;;;;;;;;;;17.50;68.00;;;12.92;100.00;95681.72;5033259;28;19915;-47
2023/05/09 05:15:41;;;;;;;;;;;17.60;68.00;;;12.98;100.00;95679.81;5015841;28;19920;-48
2023/05/09 05:18:06;;;;;;;;;;;17.70;67.90;;;13.06;100.00;95676.53;5033121;28;20447;-48
2023/05/09 05:20:33;;;;;;;;;;;17.80;67.90;;;13.14;100.00;95675.97;5032986;28;19917;-48
2023/05/09 05:22:59;;;;;;;;;;;17.90;67.80;;;13.19;100.00;95681.28;5033668;28;20302;-47
2023/05/09 05:25:25;;;;;;;;;;;18.00;67.70;;;13.15;100.00;95680.22;5032877;28;19909;-47
2023/05/09 05:27:51;;;;;;;;;;;18.00;67.60;;;13.20;100.00;95679.41;5032251;28;19948;-47
2023/05/09 05:30:17;;;;;;;;;;;18.00;67.50;;;13.29;100.00;95679.66;5033674;28;19977;-51
2023/05/09 05:32:43;;;;;;;;;;;18.10;67.40;;;13.25;100.00;95676.72;5032769;28;19916;-47
2023/05/09 05:35:12;;;;;;;;;;;18.20;67.50;;;13.25;100.00;95676.72;5027512;28;19916;-48
2023/05/09 05:37:40;;;;;;;;;;;18.20;67.40;;;13.30;100.00;95682.03;5032171;28;20321;-47
2023/05/09 05:40:07;;;;;;;;;;;18.30;67.30;;;13.32;100.00;95681.75;5033464;28;20286;-47
2023/05/09 05:42:33;;;;;;;;;;;18.30;67.30;;;13.34;100.00;95679.59;5029538;28;20007;-47
2023/05/09 05:45:03;;;;;;;;;;;18.40;67.30;;;13.37;100.00;95674.47;5032719;28;19935;-48
2023/05/09 05:47:35;;;;;;;;;;;18.40;67.10;;;13.46;100.00;95673.88;5029479;28;20299;-47
2023/05/09 05:50:03;;;;;;;;;;;18.50;67.00;;;13.56;100.00;95679.16;5014496;28;19913;-48
2023/05/09 05:52:29;;;;;;;;;;;18.60;67.00;;;13.53;100.00;95677.81;5032813;28;19909;-48
2023/05/09 05:54:55;;;;;;;;;;;18.60;66.90;;;13.59;100.00;95676.72;5031428;28;19913;-48
2023/05/09 05:57:21;;;;;;;;;;;18.70;66.90;;;13.60;100.00;95681.00;5031742;28;20383;-48
2023/05/09 05:59:48;;;;;;;;;;;18.70;66.80;;;13.64;100.00;95676.66;5043251;28;19995;-48
2023/05/09 06:02:16;;;;;;;;;;;18.70;66.70;;;13.69;100.00;95673.13;5032044;28;19974;-50
2023/05/09 06:04:42;;;;;;;;;;;18.80;66.70;;;13.73;100.00;95670.72;5013959;28;19913;-51
2023/05/09 06:07:09;;;;;;;;;;;18.80;66.60;;;13.79;100.00;95666.91;5031283;28;20395;-48
2023/05/09 06:09:35;;;;;;;;;;;18.90;66.60;;;13.84;100.00;95666.84;5013962;28;20322;-48
2023/05/09 06:12:01;;;;;;;;;;;19.00;66.60;;;13.92;100.00;95660.88;5014668;28;19913;-48
2023/05/09 06:14:27;;;;;;;;;;;19.10;66.50;;;14.01;100.00;95659.19;5031900;28;20008;-48
2023/05/09 06:16:53;;;;;;;;;;;19.20;66.50;;;14.04;100.00;95655.13;5031573;28;19936;-48
2023/05/09 06:19:19;;;;;;;;;;;19.30;66.40;;;14.08;100.00;95650.81;5032052;28;19959;-48
2023/05/09 06:21:44;;;;;;;;;;;19.40;66.20;;;14.15;100.00;95658.50;5032291;28;19936;-48
2023/05/09 06:24:10;;;;;;;;;;;19.50;66.10;;;14.23;100.00;95657.88;5025537;28;19913;-48
2023/05/09 06:26:36;;;;;;;;;;;19.60;66.00;;;14.28;100.00;95663.16;5030050;28;20376;-47
2023/05/09 06:29:04;;;;;;;;;;;19.70;65.90;;;14.31;100.00;95657.25;4987051;28;23139;-48
2023/05/09 06:31:30;;;;;;;;;;;19.70;65.80;;;14.34;100.00;95651.31;5030206;28;20434;-51
2023/05/09 06:33:56;;;;;;;;;;;19.80;65.80;;;14.41;100.00;95642.91;5028933;28;19999;-48
2023/05/09 06:36:22;;;;;;;;;;;19.80;65.60;;;14.49;100.00;95645.75;5030014;28;19935;-48
2023/05/09 06:38:47;;;;;;;;;;;19.80;65.60;;;14.57;100.00;95644.34;5009151;28;20360;-48
2023/05/09 06:41:13;;;;;;;;;;;19.90;65.60;;;14.58;100.00;95648.63;5031055;28;19979;-47
2023/05/09 06:43:39;;;;;;;;;;;19.90;65.60;;;14.53;100.00;95644.13;5029104;28;19913;-49
2023/05/09 06:46:05;;;;;;;;;;;19.90;65.60;;;14.50;100.00;95642.00;5027978;28;19921;-48
2023/05/09 06:48:30;;;;;;;;;;;19.90;65.50;;;14.50;100.00;95627.78;5030041;28;20371;-50
2023/05/09 06:50:56;;;;;;;;;;;19.90;65.50;;;14.50;100.00;95625.91;5030712;28;20366;-48
2023/05/09 06:53:22;;;;;;;;;;;19.90;65.50;;;14.51;100.00;95621.41;5025583;28;19912;-49
2023/05/09 06:55:48;;;;;;;;;;;19.90;65.50;;;14.55;100.00;95620.53;5030618;28;20299;-48
2023/05/09 06:58:14;;;;;;;;;;;20.00;65.40;;;14.63;100.00;95626.31;5032234;28;19909;-47
2023/05/09 07:00:39;;;;;;;;;;;20.10;65.20;;;14.72;100.00;95633.41;5036058;28;19935;-50
2023/05/09 07:03:08;;;;;;;;;;;20.20;65.20;;;14.87;100.00;95631.63;5030942;28;19913;-47
2023/05/09 07:05:34;;;;;;;;;;;20.40;65.00;;;14.98;100.00;95623.16;5029514;28;20275;-49
2023/05/09 07:07:59;;;;;;;;;;;20.60;64.90;;;15.08;100.00;95632.13;5030523;28;19923;-47
2023/05/09 07:10:25;;;;;;;;;;;20.80;64.70;;;15.10;100.00;95617.31;5032186;28;20076;-48
2023/05/09 07:12:51;;;;;;;;;;;20.90;64.50;;;15.22;100.00;95614.97;5029469;28;19994;-48
2023/05/09 07:15:17;;;;;;;;;;;21.00;64.40;;;15.35;100.00;95613.44;5031842;28;20382;-48
2023/05/09 07:17:42;;;;;;;;;;;21.20;64.30;;;15.39;100.00;95609.09;5031668;28;19962;-48
2023/05/09 07:20:08;;;;;;;;;;;21.30;64.20;;;15.52;100.00;95612.91;5030929;28;19908;-48
2023/05/09 07:22:34;;;;;;;;;;;21.40;64.10;;;15.62;100.00;95618.09;5031775;28;19908;-48
2023/05/09 07:25:00;;;;;;;;;;;21.50;64.10;;;15.68;100.00;95606.19;5030813;28;19908;-48
2023/05/09 07:27:26;;;;;;;;;;;21.50;64.00;;;15.85;100.00;95604.81;5031216;28;19909;-48
2023/05/09 07:29:51;;;;;;;;;;;21.60;64.00;;;16.01;99.81;95600.75;5031471;28;20350;-47
2023/05/09 07:32:18;;;;;;;;;;;21.80;64.00;;;15.95;98.07;95594.69;5030558;28;19913;-48
2023/05/09 07:34:44;;;;;;;;;;;21.90;63.80;;;16.07;95.80;95590.69;5030447;28;19913;-47
2023/05/09 07:37:10;;;;;;;;;;;22.10;63.60;;;16.15;96.07;95593.50;5030095;28;19962;-49
2023/05/09 07:39:36;;;;;;;;;;;22.20;63.40;;;16.18;93.62;95579.44;5031621;28;20031;-48
2023/05/09 07:42:02;;;;;;;;;;;22.30;63.20;;;16.39;94.12;95585.22;5031144;28;19944;-49
2023/05/09 07:44:28;;;;;;;;;;;22.50;63.20;;;16.60;94.49;95582.84;5012529;28;19909;-48
2023/05/09 07:46:54;;;;;;;;;;;22.70;63.10;;;16.86;91.28;95574.28;5031060;28;20377;-48
2023/05/09 07:49:21;;;;;;;;;;;22.90;62.90;;;17.02;88.54;95575.50;5030472;28;19909;-48
2023/05/09 07:51:46;;;;;;;;;;;23.10;62.60;;;17.23;90.12;95577.69;5031309;28;19912;-50
2023/05/09 07:54:12;;;;;;;;;;;23.20;62.50;;;17.43;88.36;95569.13;5031456;28;20366;-48
2023/05/09 07:56:38;;;;;;;;;;;23.40;62.40;;;17.64;88.14;95565.88;5029413;28;19963;-47
2023/05/09 07:59:04;;;;;;;;;;;23.60;62.20;;;17.73;85.53;95562.13;5039293;28;19929;-50
2023/05/09 08:01:30;;;;;;;;;;;23.80;61.90;;;18.02;84.13;95555.47;5035669;28;20367;-48
2023/05/09 08:03:55;;;;;;;;;;;24.00;61.60;;;18.34;83.87;95553.50;5031406;28;20390;-48
2023/05/09 08:06:21;;;;;;;;;;;24.30;61.40;;;18.54;79.72;95550.19;5030729;28;20358;-50
2023/05/09 08:08:47;;;;;;;;;;;24.30;61.10;;;18.73;77.88;95552.59;5030698;28;20016;-50
2023/05/09 08:11:12;;;;;;;;;;;24.40;60.90;;;18.81;80.22;95543.72;5031161;28;19913;-48
2023/05/09 08:13:38;;;;;;;;;;;24.50;60.80;;;18.83;77.13;95540.69;5030115;28;20004;-48
2023/05/09 08:16:04;;;;;;;;;;;24.70;60.60;;;18.99;76.80;95546.41;5031180;28;19952;-49
2023/05/09 08:18:30;;;;;;;;;;;24.80;60.50;;;19.08;75.98;95537.19;5029415;28;19908;-49
2023/05/09 08:20:58;;;;;;;;;;;24.80;60.30;;;19.04;73.69;95532.75;5030705;28;19913;-49
2023/05/09 08:23:25;;;;;;;;;;;24.80;60.00;;;18.93;71.48;95526.91;5030998;28;19916;-51
2023/05/09 08:25:54;;;;;;;;;;;25.00;59.70;;;19.15;73.77;95526.72;5029782;28;19987;-49
2023/05/09 08:28:23;;;;;;;;;;;25.20;59.20;;;19.38;72.06;95535.38;5030583;28;19916;-48
2023/05/09 08:30:52;;;;;;;;;;;25.30;59.10;;;19.42;69.34;95524.72;5029782;28;19967;-48
2023/05/09 08:33:18;;;;;;;;;;;25.40;59.00;;;19.82;68.99;95521.78;5031096;28;19916;-48
2023/05/09 08:35:45;;;;;;;;;;;25.70;58.80;;;20.19;68.71;95512.03;5030942;28;19917;-48
2023/05/09 08:38:10;;;;;;;;;;;26.20;58.70;;;20.59;67.52;95506.25;5029402;28;19909;-48
2023/05/09 08:40:37;;;;;;;;;;;26.60;58.40;;;20.75;63.49;95504.50;5030836;28;19919;-48
2023/05/09 08:43:06;;;;;;;;;;;27.00;58.00;;;21.26;63.86;95499.72;5029490;28;19912;-48
2023/05/09 08:45:39;;;;;;;;;;;27.50;57.80;;;21.75;63.14;95490.13;5031183;28;19951;-48
2023/05/09 08:48:06;;;;;;;;;;;28.00;57.60;;;21.95;58.63;95487.31;5013441;28;19916;-49
2023/05/09 08:50:32;;;;;;;;;;;28.40;57.10;;;22.27;55.89;95486.75;5010869;28;19916;-48
2023/05/09 08:52:58;;;;;;;;;;;28.80;56.60;;;22.41;56.13;95489.91;5003431;28;19919;-49
2023/05/09 08:55:25;;;;;;;;;;;29.20;56.00;;;22.63;52.27;95483.19;5010671;28;19924;-48
2023/05/09 08:57:51;;;;;;;;;;;29.50;55.50;;;22.83;53.17;95467.81;5010195;28;19916;-48
2023/05/09 09:00:19;;;;;;;;;;;29.90;54.90;;;23.28;52.40;95474.88;5042096;28;19927;-48
2023/05/09 09:02:45;;;;;;;;;;;30.10;54.20;;;23.15;55.73;95462.50;5014175;28;19908;-51
2023/05/09 09:05:12;;;;;;;;;;;30.30;53.90;;;23.06;55.45;95463.47;5034335;28;20363;-47
2023/05/09 09:07:40;;;;;;;;;;;30.50;53.30;;;23.60;56.06;95458.59;5005078;28;20265;-50
2023/05/09 09:10:09;;;;;;;;;;;30.80;53.10;;;24.01;54.84;95457.28;5033029;28;20629;-48
2023/05/09 09:12:36;;;;;;;;;;;31.00;52.80;;;24.12;53.53;95450.16;5033317;28;19974;-48
2023/05/09 09:15:13;;;;;;;;;;;31.30;52.50;;;24.44;52.25;95448.16;5016410;28;19913;-50
2023/05/09 09:17:42;;;;;;;;;;;31.50;51.90;;;24.67;50.56;95447.47;5016386;28;19940;-48
2023/05/09 09:20:13;;;;;;;;;;;31.60;51.60;;;24.98;48.78;95437.56;5015201;28;19987;-48
2023/05/09 09:22:42;;;;;;;;;;;31.80;51.00;;;24.91;52.06;95438.19;5016549;28;19919;-48
2023/05/09 09:25:09;;;;;;;;;;;32.00;50.80;;;25.12;49.47;95435.91;5015721;28;19909;-48
2023/05/09 09:27:34;;;;;;;;;;;32.20;50.60;;;25.53;46.99;95435.44;5029392;28;19992;-48
2023/05/09 09:30:09;;;;;;;;;;;32.40;50.30;;;25.52;47.30;95428.41;5033768;28;19996;-48
2023/05/09 09:32:36;;;;;;;;;;;32.70;49.90;;;25.43;45.97;95427.88;5032888;28;19908;-48
2023/05/09 09:35:11;;;;;;;;;;;32.90;49.40;;;25.50;47.23;95423.31;5033289;28;19913;-48
2023/05/09 09:37:41;;;;;;;;;;;33.00;48.80;;;26.01;46.17;95416.72;5032123;28;19912;-49
2023/05/09 09:40:10;;;;;;;;;;;33.30;48.60;;;26.24;44.67;95413.94;5033531;28;19912;-48
2023/05/09 09:42:51;;;;;;;;;;;33.30;48.50;;;26.29;44.88;95414.41;5014939;28;19915;-48
2023/05/09 09:45:19;;;;;;;;;;;33.40;48.10;;;25.80;45.63;95407.06;5033326;28;20359;-49
2023/05/09 09:47:47;;;;;;;;;;;33.10;47.90;;;25.94;45.52;95405.72;5033113;28;19915;-48
2023/05/09 09:50:21;;;;;;;;;;;33.20;47.50;;;25.87;42.49;95398.22;5035526;28;19919;-50
2023/05/09 09:52:54;;;;;;;;;;;33.30;47.20;;;26.15;45.37;95397.06;5053334;28;20392;-48
2023/05/09 09:55:22;;;;;;;;;;;33.50;46.90;;;26.19;43.42;95397.88;5048833;28;19913;-48
2023/05/09 09:57:50;;;;;;;;;;;33.80;46.50;;;26.43;44.57;95396.63;5049517;28;20351;-49
2023/05/09 10:00:27;;;;;;;;;;;34.10;46.20;;;26.85;41.02;95388.16;5051370;28;20397;-50
2023/05/09 10:02:56;;;;;;;;;;;34.40;45.80;;;26.87;41.47;95390.53;5045347;28;20353;-48
2023/05/09 10:05:29;;;;;;;;;;;34.80;45.50;;;27.12;40.87;95379.88;5053268;28;19919;-49
2023/05/09 10:08:01;;;;;;;;;;;35.10;45.60;;;26.86;43.14;95372.59;5040295;28;20007;-49
2023/05/09 10:10:30;;;;;;;;;;;35.30;44.50;;;27.06;40.51;95362.25;5052893;28;19957;-49
2023/05/09 10:13:01;;;;;;;;;;;35.60;44.20;;;26.58;41.84;95373.06;5050519;28;19909;-48
2023/05/09 10:15:30;;;;;;;;;;;35.40;44.00;;;26.49;42.03;95362.41;5052688;28;19951;-49
2023/05/09 10:17:59;;;;;;;;;;;35.20;44.20;;;26.28;42.61;95352.75;5034743;28;19908;-49
2023/05/09 10:20:27;;;;;;;;;;;35.10;43.90;;;26.62;41.66;95347.34;5039790;28;19909;-49
2023/05/09 10:23:00;;;;;;;;;;;35.10;43.40;;;26.53;40.92;95349.59;5032208;28;19961;-49
2023/05/09 10:26:05;;;;;;;;;;;35.20;42.10;;;26.34;44.99;95342.31;5044363;28;19915;-49
2023/05/09 10:28:33;;;;;;;;;;;35.10;42.30;;;26.53;47.45;95330.47;5028035;28;19908;-49
2023/05/09 10:31:13;;;;;;;;;;;35.20;42.70;;;27.11;41.07;95329.88;5032573;28;19990;-52
2023/05/09 10:33:48;;;;;;;;;;;35.40;43.40;;;27.05;42.76;95317.72;5035642;28;19950;-48
2023/05/09 10:36:24;;;;;;;;;;;35.70;42.50;;;27.25;42.77;95323.00;5034426;28;19920;-48
2023/05/09 10:38:54;;;;;;;;;;;36.00;42.20;;;27.76;39.80;95316.72;5047536;28;20278;-49
2023/05/09 10:41:20;;;;;;;;;;;36.30;42.00;;;28.13;41.39;95316.53;5034652;28;19957;-47
2023/05/09 10:43:47;;;;;;;;;;;36.60;41.50;;;28.43;37.40;95316.31;5042173;28;19912;-48
2023/05/09 10:46:14;;;;;;;;;;;36.90;41.30;;;28.30;38.43;95307.63;5052204;28;19921;-49
2023/05/09 10:48:41;;;;;;;;;;;37.10;41.00;;;28.25;41.49;95307.22;5048581;28;19908;-49
2023/05/09 10:51:09;;;;;;;;;;;37.30;40.80;;;28.37;40.20;95306.88;5041994;28;19923;-49
2023/05/09 10:53:49;;;;;;;;;;;37.30;40.30;;;28.32;39.03;95297.06;5034254;28;19908;-48
2023/05/09 10:56:32;;;;;;;;;;;37.30;40.10;;;27.99;39.14;95294.59;5030495;28;19946;-47
2023/05/09 10:58:59;;;;;;;;;;;37.30;39.80;;;27.94;41.16;95282.03;5041045;28;20010;-50
2023/05/09 11:01:38;;;;;;;;;;;37.30;39.80;;;27.64;38.29;95285.78;5043037;28;19915;-47
2023/05/09 11:04:13;;;;;;;;;;;37.10;39.60;;;27.36;39.74;95280.91;5052002;28;19909;-46
2023/05/09 11:06:44;;;;;;;;;;;36.80;39.30;;;27.14;40.77;95282.69;5017537;28;19915;-48
2023/05/09 11:09:40;;;;;;;;;;;36.40;39.00;;;27.02;40.55;95268.50;5042293;28;19970;-48
2023/05/09 11:12:11;;;;;;;;;;;36.20;39.20;;;26.87;41.35;95256.66;5051607;28;20383;-47
2023/05/09 11:14:41;;;;;;;;;;;36.10;39.20;;;26.85;40.69;95253.50;5048015;28;19920;-49
2023/05/09 11:17:28;;;;;;;;;;;36.00;39.20;;;26.93;39.54;95239.53;5042473;28;19940;-49